createdAt,value
2017-12-16T00:00:06.237Z,90.30
2017-12-16T00:02:34.535Z,90.40
2017-12-16T00:05:02.859Z,90.30
2017-12-16T00:07:31.153Z,90.30
2017-12-16T00:09:59.467Z,90.20
2017-12-16T00:12:27.761Z,90.20
2017-12-16T00:14:56.122Z,90.20
2017-12-16T00:17:24.409Z,90.10
2017-12-16T00:19:52.705Z,90.10
2017-12-16T00:22:21.008Z,90.20
2017-12-16T00:24:49.305Z,90.10
2017-12-16T00:27:17.618Z,90.20
2017-12-16T00:29:45.912Z,90.20
2017-12-16T00:32:14.264Z,90.10
2017-12-16T00:34:42.565Z,90.10
2017-12-16T00:37:10.862Z,90.10
2017-12-16T00:39:39.172Z,90.10
2017-12-16T00:42:07.470Z,90.10
2017-12-16T00:44:35.016Z,90.10
2017-12-16T00:47:03.316Z,90.00
2017-12-16T00:49:31.656Z,90.10
2017-12-16T00:51:59.989Z,90.10
2017-12-16T00:54:28.256Z,90.10
2017-12-16T00:56:56.581Z,90.10
2017-12-16T00:59:24.112Z,90.10
2017-12-16T01:01:52.424Z,90.10
2017-12-16T01:04:20.725Z,90.10
2017-12-16T01:06:49.055Z,90.00
2017-12-16T01:09:17.344Z,90.10
2017-12-16T01:11:45.640Z,90.00
2017-12-16T01:14:13.956Z,90.00
2017-12-16T01:16:42.244Z,90.00
2017-12-16T01:19:10.564Z,90.00
2017-12-16T01:21:38.099Z,90.00
2017-12-16T01:24:06.422Z,90.30
2017-12-16T01:26:34.713Z,90.00
2017-12-16T01:29:03.105Z,90.00
2017-12-16T01:31:31.376Z,90.00
2017-12-16T01:34:11.499Z,90.00
2017-12-16T01:36:51.516Z,90.00
2017-12-16T01:39:19.873Z,90.00
2017-12-16T01:41:48.162Z,90.00
2017-12-16T01:44:16.476Z,90.00
2017-12-16T01:46:44.785Z,90.10
2017-12-16T01:49:13.075Z,90.10
2017-12-16T01:51:41.388Z,90.10
2017-12-16T01:54:09.682Z,90.10
2017-12-16T01:56:37.996Z,90.00
2017-12-16T01:59:06.288Z,90.00
2017-12-16T02:01:33.864Z,90.00
2017-12-16T02:04:02.160Z,90.10
2017-12-16T02:06:30.456Z,90.10
2017-12-16T02:08:58.773Z,90.10
2017-12-16T02:11:27.064Z,90.10
2017-12-16T02:13:55.375Z,90.10
2017-12-16T02:16:23.670Z,90.10
2017-12-16T02:18:52.026Z,90.10
2017-12-16T02:21:20.326Z,90.10
2017-12-16T02:23:48.680Z,90.10
2017-12-16T02:26:16.977Z,90.10
2017-12-16T02:28:45.268Z,90.10
2017-12-16T02:31:13.586Z,90.00
2017-12-16T02:33:41.949Z,90.10
2017-12-16T02:36:10.211Z,90.10
2017-12-16T02:38:38.505Z,90.10
2017-12-16T02:41:06.817Z,90.10
2017-12-16T02:43:35.121Z,90.10
2017-12-16T02:46:03.464Z,90.10
2017-12-16T02:48:31.765Z,90.00
2017-12-16T02:51:00.062Z,90.10
2017-12-16T02:53:28.385Z,90.10
2017-12-16T02:55:56.672Z,90.50
2017-12-16T02:58:24.995Z,90.20
2017-12-16T03:00:53.284Z,90.20
2017-12-16T03:03:21.601Z,90.20
2017-12-16T03:05:49.884Z,90.20
2017-12-16T03:08:18.239Z,90.20
2017-12-16T03:10:46.587Z,90.30
2017-12-16T03:13:14.861Z,90.20
2017-12-16T03:15:43.193Z,90.20
2017-12-16T03:18:11.484Z,90.30
2017-12-16T03:20:39.800Z,90.70
2017-12-16T03:23:08.105Z,90.30
2017-12-16T03:25:36.422Z,90.30
2017-12-16T03:28:04.716Z,90.30
2017-12-16T03:30:33.069Z,90.30
2017-12-16T03:33:01.379Z,90.30
2017-12-16T03:35:29.680Z,90.40
2017-12-16T03:37:57.992Z,90.30
2017-12-16T03:40:26.310Z,90.30
2017-12-16T03:42:54.626Z,90.30
2017-12-16T03:45:22.921Z,90.60
2017-12-16T03:47:51.237Z,90.50
2017-12-16T03:50:19.524Z,90.20
2017-12-16T03:52:47.828Z,90.20
2017-12-16T03:55:16.117Z,90.20
2017-12-16T03:57:44.408Z,90.20
2017-12-16T04:00:12.716Z,90.20
2017-12-16T04:02:41.009Z,90.20
2017-12-16T04:05:09.328Z,90.20
2017-12-16T04:07:37.616Z,90.20
2017-12-16T04:10:05.928Z,90.20
2017-12-16T04:12:34.221Z,90.20
2017-12-16T04:15:02.517Z,90.30
2017-12-16T04:17:30.833Z,90.30
2017-12-16T04:19:59.125Z,90.30
2017-12-16T04:22:27.441Z,90.30
2017-12-16T04:24:55.744Z,90.60
2017-12-16T04:27:24.097Z,90.40
2017-12-16T04:29:52.390Z,90.40
2017-12-16T04:32:19.919Z,90.70
2017-12-16T04:34:48.232Z,90.40
2017-12-16T04:37:16.523Z,90.40
2017-12-16T04:39:44.836Z,90.40
2017-12-16T04:42:13.129Z,90.50
2017-12-16T04:44:41.476Z,90.50
2017-12-16T04:47:09.768Z,90.50
2017-12-16T04:49:38.102Z,90.50
2017-12-16T04:52:06.397Z,90.50
2017-12-16T04:54:34.686Z,90.50
2017-12-16T04:57:02.997Z,90.50
2017-12-16T04:59:31.289Z,90.50
2017-12-16T05:01:59.607Z,90.60
2017-12-16T05:04:27.901Z,91.00
2017-12-16T05:06:56.213Z,90.70
2017-12-16T05:09:24.506Z,90.70
2017-12-16T05:11:52.879Z,90.70
2017-12-16T05:14:21.165Z,90.70
2017-12-16T05:16:49.457Z,90.70
2017-12-16T05:19:17.769Z,90.70
2017-12-16T05:21:46.061Z,90.70
2017-12-16T05:24:14.382Z,90.50
2017-12-16T05:26:42.701Z,90.90
2017-12-16T05:29:11.020Z,90.50
2017-12-16T05:31:39.320Z,90.50
2017-12-16T05:34:07.649Z,90.50
2017-12-16T05:36:35.936Z,90.50
2017-12-16T05:39:04.229Z,90.50
2017-12-16T05:41:32.540Z,90.50
2017-12-16T05:44:00.835Z,90.40
2017-12-16T05:46:29.151Z,90.30
2017-12-16T05:48:57.444Z,90.80
2017-12-16T05:51:25.765Z,90.20
2017-12-16T05:53:54.056Z,90.00
2017-12-16T05:56:22.373Z,90.00
2017-12-16T05:58:50.660Z,90.00
2017-12-16T06:01:18.985Z,89.80
2017-12-16T06:03:47.305Z,89.70
2017-12-16T06:06:15.672Z,89.50
2017-12-16T06:08:43.968Z,89.10
2017-12-16T06:11:12.260Z,89.20
2017-12-16T06:13:40.564Z,89.20
2017-12-16T06:16:08.866Z,89.00
2017-12-16T06:18:37.180Z,88.90
2017-12-16T06:21:05.481Z,88.80
2017-12-16T06:23:33.798Z,88.90
2017-12-16T06:26:02.088Z,89.00
2017-12-16T06:28:30.412Z,89.10
2017-12-16T06:30:58.700Z,89.30
2017-12-16T06:33:27.049Z,89.30
2017-12-16T06:35:55.335Z,89.50
2017-12-16T06:38:23.625Z,89.50
2017-12-16T06:40:51.941Z,89.60
2017-12-16T06:43:20.242Z,89.80
2017-12-16T06:45:48.557Z,89.70
2017-12-16T06:48:16.849Z,89.80
2017-12-16T06:50:45.162Z,90.20
2017-12-16T06:53:13.458Z,89.90
2017-12-16T06:55:41.829Z,89.90
2017-12-16T06:58:10.116Z,89.90
2017-12-16T07:00:38.401Z,90.00
2017-12-16T07:03:06.717Z,90.00
2017-12-16T07:05:35.031Z,90.00
2017-12-16T07:08:03.345Z,90.00
2017-12-16T07:10:30.872Z,90.00
2017-12-16T07:12:59.188Z,89.40
2017-12-16T07:15:27.476Z,89.70
2017-12-16T07:17:55.813Z,89.70
2017-12-16T07:20:24.121Z,89.70
2017-12-16T07:22:52.489Z,89.60
2017-12-16T07:25:20.758Z,89.70
2017-12-16T07:27:49.068Z,89.70
2017-12-16T07:30:17.365Z,89.60
2017-12-16T07:32:45.684Z,89.70
2017-12-16T07:35:13.982Z,89.70
2017-12-16T07:37:42.313Z,89.60
2017-12-16T07:40:10.607Z,89.60
2017-12-16T07:42:38.906Z,89.70
2017-12-16T07:45:07.221Z,89.60
2017-12-16T07:47:35.514Z,89.50
2017-12-16T07:50:03.840Z,89.50
2017-12-16T07:52:32.143Z,89.40
2017-12-16T07:55:00.501Z,89.30
2017-12-16T07:57:28.796Z,90.00
2017-12-16T07:59:57.111Z,89.30
2017-12-16T08:02:25.412Z,89.30
2017-12-16T08:04:53.748Z,89.30
2017-12-16T08:07:22.041Z,90.00
2017-12-16T08:09:51.301Z,89.50
2017-12-16T08:12:19.611Z,89.50
2017-12-16T08:14:47.933Z,89.40
2017-12-16T08:17:16.231Z,89.40
2017-12-16T08:19:44.539Z,89.20
2017-12-16T08:22:12.824Z,89.10
2017-12-16T08:24:41.137Z,88.90
2017-12-16T08:27:09.430Z,89.20
2017-12-16T08:29:37.744Z,89.10
2017-12-16T08:32:06.045Z,88.60
2017-12-16T08:34:34.361Z,88.40
2017-12-16T08:37:02.656Z,88.50
2017-12-16T08:39:30.205Z,88.40
2017-12-16T08:41:57.736Z,88.10
2017-12-16T08:44:26.054Z,88.10
2017-12-16T08:46:54.358Z,88.20
2017-12-16T08:49:22.669Z,88.10
2017-12-16T08:51:50.959Z,87.80
2017-12-16T08:54:19.272Z,87.90
2017-12-16T08:56:47.591Z,87.90
2017-12-16T08:59:15.901Z,87.90
2017-12-16T09:01:44.188Z,88.00
2017-12-16T09:04:12.516Z,87.90
2017-12-16T09:06:40.799Z,88.10
2017-12-16T09:09:09.123Z,87.80
2017-12-16T09:11:37.417Z,87.00
2017-12-16T09:14:05.735Z,86.50
2017-12-16T09:16:34.028Z,87.10
2017-12-16T09:19:02.375Z,86.10
2017-12-16T09:21:30.668Z,86.60
2017-12-16T09:23:58.196Z,86.60
2017-12-16T09:26:26.521Z,86.60
2017-12-16T09:28:54.813Z,86.40
2017-12-16T09:31:23.137Z,86.30
2017-12-16T09:33:51.428Z,86.20
2017-12-16T09:36:19.748Z,87.10
2017-12-16T09:38:48.047Z,86.60
2017-12-16T09:41:16.365Z,86.60
2017-12-16T09:43:44.672Z,86.40
2017-12-16T09:46:12.984Z,86.20
2017-12-16T09:48:41.276Z,86.00
2017-12-16T09:51:09.600Z,85.60
2017-12-16T09:53:37.900Z,85.10
2017-12-16T09:56:06.212Z,84.60
2017-12-16T09:58:34.504Z,84.50
2017-12-16T10:01:02.820Z,84.60
2017-12-16T10:03:31.108Z,84.30
2017-12-16T10:05:59.415Z,84.30
2017-12-16T10:08:27.704Z,84.70
2017-12-16T10:10:56.020Z,84.70
2017-12-16T10:13:24.312Z,84.80
2017-12-16T10:15:52.631Z,84.50
2017-12-16T10:18:20.924Z,84.40
2017-12-16T10:20:49.252Z,84.00
2017-12-16T10:23:17.540Z,83.40
2017-12-16T10:25:45.852Z,83.20
2017-12-16T10:28:14.137Z,82.60
2017-12-16T10:30:42.443Z,82.20
2017-12-16T10:33:10.731Z,82.20
2017-12-16T10:35:39.045Z,82.10
2017-12-16T10:38:07.333Z,81.80
2017-12-16T10:40:35.651Z,81.90
2017-12-16T10:43:03.948Z,82.00
2017-12-16T10:45:32.266Z,81.60
2017-12-16T10:48:00.568Z,81.20
2017-12-16T10:50:28.876Z,81.10
2017-12-16T10:52:57.168Z,81.00
2017-12-16T10:55:25.485Z,81.20
2017-12-16T10:57:53.781Z,81.20
2017-12-16T11:00:22.075Z,81.40
2017-12-16T11:02:50.395Z,81.70
2017-12-16T11:05:18.693Z,81.70
2017-12-16T11:07:47.009Z,81.70
2017-12-16T11:10:15.300Z,81.00
2017-12-16T11:12:43.610Z,81.10
2017-12-16T11:15:11.901Z,81.40
2017-12-16T11:17:40.209Z,81.20
2017-12-16T11:20:08.503Z,81.20
2017-12-16T11:22:36.820Z,80.10
2017-12-16T11:25:05.116Z,79.50
2017-12-16T11:27:33.434Z,79.30
2017-12-16T11:30:01.721Z,79.00
2017-12-16T11:32:30.028Z,79.50
2017-12-16T11:34:58.316Z,79.30
2017-12-16T11:37:28.128Z,79.40
2017-12-16T11:39:56.425Z,77.80
2017-12-16T11:42:24.739Z,77.80
2017-12-16T11:44:53.035Z,77.90
2017-12-16T11:47:21.353Z,78.00
2017-12-16T11:49:49.644Z,78.60
2017-12-16T11:52:17.948Z,78.80
2017-12-16T11:54:51.023Z,78.80
2017-12-16T11:57:19.337Z,78.40
2017-12-16T11:59:47.625Z,77.80
2017-12-16T12:02:15.936Z,78.40
2017-12-16T12:04:44.224Z,78.80
2017-12-16T12:07:12.593Z,79.10
2017-12-16T12:09:40.869Z,79.30
2017-12-16T12:12:09.172Z,78.80
2017-12-16T12:14:37.456Z,78.70
2017-12-16T12:17:05.772Z,78.30
2017-12-16T12:19:34.061Z,77.40
2017-12-16T12:22:02.372Z,78.00
2017-12-16T12:24:30.664Z,78.60
2017-12-16T12:26:58.980Z,79.80
2017-12-16T12:29:27.277Z,78.90
2017-12-16T12:31:55.580Z,79.50
2017-12-16T12:34:23.112Z,79.40
2017-12-16T12:36:51.424Z,80.10
2017-12-16T12:39:19.717Z,79.40
2017-12-16T12:41:48.045Z,79.00
2017-12-16T12:44:16.327Z,78.40
2017-12-16T12:46:44.616Z,78.60
2017-12-16T12:49:14.097Z,78.60
2017-12-16T12:51:42.385Z,79.50
2017-12-16T12:54:10.706Z,78.30
2017-12-16T12:56:39.001Z,77.50
2017-12-16T12:59:07.315Z,77.40
2017-12-16T13:01:35.605Z,77.90
2017-12-16T13:04:03.920Z,77.90
2017-12-16T13:06:32.216Z,78.50
2017-12-16T13:09:00.523Z,78.40
2017-12-16T13:11:28.822Z,78.80
2017-12-16T13:13:57.132Z,78.80
2017-12-16T13:16:25.421Z,78.60
2017-12-16T13:18:53.736Z,78.80
2017-12-16T13:21:22.027Z,78.40
2017-12-16T13:23:50.366Z,78.70
2017-12-16T13:26:18.654Z,78.40
2017-12-16T13:28:46.969Z,77.00
2017-12-16T13:31:15.265Z,77.20
2017-12-16T13:33:43.584Z,77.50
2017-12-16T13:36:11.876Z,76.80
2017-12-16T13:38:40.184Z,76.80
2017-12-16T13:41:08.473Z,77.60
2017-12-16T13:43:36.776Z,77.90
2017-12-16T13:46:05.072Z,78.00
2017-12-16T13:48:33.383Z,77.70
2017-12-16T13:51:00.901Z,77.70
2017-12-16T13:53:29.208Z,76.70
2017-12-16T13:55:57.492Z,76.70
2017-12-16T13:58:25.804Z,76.70
2017-12-16T14:00:54.103Z,76.70
2017-12-16T14:03:22.408Z,77.00
2017-12-16T14:05:50.700Z,77.60
2017-12-16T14:08:19.007Z,78.00
2017-12-16T14:10:47.291Z,78.50
2017-12-16T14:13:15.605Z,78.80
2017-12-16T14:15:43.968Z,79.40
2017-12-16T14:18:12.293Z,79.80
2017-12-16T14:20:40.575Z,79.80
2017-12-16T14:23:08.861Z,80.00
2017-12-16T14:25:37.172Z,80.10
2017-12-16T14:28:05.477Z,80.20
2017-12-16T14:30:33.785Z,80.30
2017-12-16T14:33:02.076Z,80.40
2017-12-16T14:35:30.381Z,80.10
2017-12-16T14:37:58.668Z,80.10
2017-12-16T14:40:26.972Z,80.50
2017-12-16T14:42:55.258Z,80.90
2017-12-16T14:45:23.728Z,80.80
2017-12-16T14:47:52.017Z,81.30
2017-12-16T14:50:20.325Z,81.50
2017-12-16T14:52:48.627Z,81.60
2017-12-16T14:55:16.942Z,81.50
2017-12-16T14:57:45.233Z,81.10
2017-12-16T15:00:13.544Z,81.20
2017-12-16T15:02:41.841Z,81.60
2017-12-16T15:05:10.156Z,82.00
2017-12-16T15:07:38.448Z,82.00
2017-12-16T15:10:06.757Z,82.10
2017-12-16T15:12:35.060Z,82.20
2017-12-16T15:15:03.372Z,82.30
2017-12-16T15:17:31.665Z,82.60
2017-12-16T15:19:59.980Z,82.90
2017-12-16T15:22:28.273Z,82.60
2017-12-16T15:24:56.584Z,82.80
2017-12-16T15:27:24.872Z,83.00
2017-12-16T15:29:53.192Z,83.20
2017-12-16T15:32:21.499Z,83.60
2017-12-16T15:34:49.821Z,83.90
2017-12-16T15:37:18.112Z,84.40
2017-12-16T15:39:46.420Z,84.80
2017-12-16T15:42:14.700Z,85.30
2017-12-16T15:44:43.014Z,85.50
2017-12-16T15:47:11.303Z,85.80
2017-12-16T15:49:39.613Z,86.00
2017-12-16T15:52:07.914Z,87.10
2017-12-16T15:54:36.238Z,86.70
2017-12-16T15:57:04.520Z,86.80
2017-12-16T15:59:32.882Z,86.80
2017-12-16T16:02:01.168Z,86.80
2017-12-16T16:04:29.460Z,87.00
2017-12-16T16:06:57.769Z,87.00
2017-12-16T16:09:26.060Z,87.00
2017-12-16T16:11:54.375Z,87.30
2017-12-16T16:14:22.668Z,87.40
2017-12-16T16:16:50.976Z,87.40
2017-12-16T16:19:19.269Z,87.40
2017-12-16T16:21:46.808Z,87.40
2017-12-16T16:24:14.328Z,87.30
2017-12-16T16:26:42.642Z,87.30
2017-12-16T16:29:10.929Z,87.20
2017-12-16T16:31:39.240Z,87.10
2017-12-16T16:34:07.532Z,87.10
2017-12-16T16:36:35.848Z,87.00
2017-12-16T16:39:04.144Z,87.00
2017-12-16T16:41:32.461Z,86.80
2017-12-16T16:44:00.758Z,86.70
2017-12-16T16:46:29.068Z,86.60
2017-12-16T16:48:57.360Z,86.40
2017-12-16T16:51:25.669Z,86.40
2017-12-16T16:53:53.956Z,86.30
2017-12-16T16:56:22.280Z,86.20
2017-12-16T16:58:50.569Z,86.10
2017-12-16T17:01:18.889Z,86.00
2017-12-16T17:03:47.176Z,85.70
2017-12-16T17:06:15.494Z,85.50
2017-12-16T17:08:43.792Z,85.50
2017-12-16T17:11:12.107Z,85.50
2017-12-16T17:13:40.393Z,85.50
2017-12-16T17:16:08.709Z,85.50
2017-12-16T17:18:36.997Z,85.40
2017-12-16T17:21:04.549Z,85.40
2017-12-16T17:23:32.838Z,85.30
2017-12-16T17:26:01.143Z,85.00
2017-12-16T17:28:29.430Z,84.90
2017-12-16T17:30:57.735Z,84.70
2017-12-16T17:33:26.034Z,84.60
2017-12-16T17:35:54.354Z,84.90
2017-12-16T17:38:22.648Z,84.90
2017-12-16T17:40:50.933Z,84.70
2017-12-16T17:43:19.240Z,84.70
2017-12-16T17:45:47.537Z,84.70
2017-12-16T17:48:15.854Z,84.70
2017-12-16T17:50:44.149Z,84.50
2017-12-16T17:53:12.469Z,84.90
2017-12-16T17:55:40.748Z,85.10
2017-12-16T17:58:09.053Z,85.30
2017-12-16T18:00:37.345Z,86.30
2017-12-16T18:03:05.654Z,85.70
2017-12-16T18:05:33.942Z,85.60
2017-12-16T18:08:02.326Z,85.40
2017-12-16T18:10:30.567Z,85.50
2017-12-16T18:12:58.933Z,85.70
2017-12-16T18:15:27.190Z,86.00
2017-12-16T18:17:56.516Z,85.60
2017-12-16T18:20:24.804Z,85.60
2017-12-16T18:22:53.112Z,85.60
2017-12-16T18:25:21.401Z,85.00
2017-12-16T18:27:49.713Z,84.90
2017-12-16T18:30:17.234Z,84.90
2017-12-16T18:32:45.539Z,85.20
2017-12-16T18:35:13.829Z,85.40
2017-12-16T18:37:42.135Z,85.40
2017-12-16T18:40:09.677Z,85.40
2017-12-16T18:42:38.003Z,85.30
2017-12-16T18:45:06.297Z,85.30
2017-12-16T18:47:34.613Z,85.30
2017-12-16T18:50:02.900Z,85.20
2017-12-16T18:52:31.208Z,85.20
2017-12-16T18:54:59.500Z,85.30
2017-12-16T18:57:27.805Z,85.40
2017-12-16T18:59:55.334Z,85.40
2017-12-16T19:02:23.658Z,85.40
2017-12-16T19:04:51.941Z,85.50
2017-12-16T19:07:20.249Z,85.50
2017-12-16T19:09:48.543Z,85.60
2017-12-16T19:12:16.085Z,85.60
2017-12-16T19:14:44.373Z,85.70
2017-12-16T19:17:12.666Z,85.70
2017-12-16T19:19:40.976Z,85.70
2017-12-16T19:22:09.611Z,85.50
2017-12-16T19:24:38.476Z,85.80
2017-12-16T19:27:07.250Z,86.00
2017-12-16T19:29:35.739Z,86.10
2017-12-16T19:32:04.074Z,86.10
2017-12-16T19:34:31.615Z,86.10
2017-12-16T19:36:59.904Z,86.20
2017-12-16T19:39:28.262Z,86.40
2017-12-16T19:41:56.570Z,86.50
2017-12-16T19:44:24.968Z,86.50
2017-12-16T19:46:53.256Z,86.60
2017-12-16T19:49:21.601Z,86.60
2017-12-16T19:51:50.006Z,86.60
2017-12-16T19:54:18.366Z,86.60
2017-12-16T19:56:46.685Z,86.50
2017-12-16T19:59:15.005Z,86.70
2017-12-16T20:01:43.308Z,86.50
2017-12-16T20:04:11.634Z,86.60
2017-12-16T20:06:40.001Z,86.60
2017-12-16T20:09:08.309Z,86.60
2017-12-16T20:11:36.597Z,86.60
2017-12-16T20:14:04.917Z,86.80
2017-12-16T20:16:33.226Z,86.90
2017-12-16T20:19:01.606Z,87.10
2017-12-16T20:21:29.896Z,87.00
2017-12-16T20:23:58.217Z,87.30
2017-12-16T20:26:26.513Z,87.70
2017-12-16T20:28:54.892Z,87.90
2017-12-16T20:31:23.184Z,88.00
2017-12-16T20:33:51.489Z,88.10
2017-12-16T20:36:19.777Z,88.10
2017-12-16T20:38:48.089Z,88.10
2017-12-16T20:41:16.393Z,88.20
2017-12-16T20:43:44.740Z,88.20
2017-12-16T20:46:13.068Z,88.00
2017-12-16T20:48:41.381Z,87.90
2017-12-16T20:51:09.683Z,87.90
2017-12-16T20:53:37.997Z,88.00
2017-12-16T20:56:06.285Z,87.80
2017-12-16T20:58:34.642Z,87.80
2017-12-16T21:01:02.981Z,87.90
2017-12-16T21:03:31.281Z,88.00
2017-12-16T21:05:59.603Z,88.10
2017-12-16T21:08:27.892Z,88.20
2017-12-16T21:10:56.208Z,88.40
2017-12-16T21:13:24.500Z,88.50
2017-12-16T21:15:52.821Z,88.60
2017-12-16T21:18:21.137Z,88.70
2017-12-16T21:20:49.453Z,88.50
2017-12-16T21:23:17.753Z,88.40
2017-12-16T21:25:46.064Z,88.30
2017-12-16T21:28:14.365Z,88.40
2017-12-16T21:30:42.677Z,88.40
2017-12-16T21:33:10.969Z,88.20
2017-12-16T21:35:39.289Z,88.30
2017-12-16T21:38:07.581Z,88.30
2017-12-16T21:40:35.125Z,88.30
2017-12-16T21:43:03.418Z,88.20
2017-12-16T21:45:31.728Z,88.30
2017-12-16T22:00:43.504Z,89.10
2017-12-16T22:03:11.811Z,87.90
2017-12-16T22:05:40.121Z,88.00
2017-12-16T22:08:08.405Z,88.00
2017-12-16T22:10:36.718Z,88.20
2017-12-16T22:13:05.003Z,88.30
2017-12-16T22:15:33.308Z,88.40
2017-12-16T22:18:01.592Z,88.50
2017-12-16T22:20:29.897Z,88.70
2017-12-16T22:22:58.185Z,88.80
2017-12-16T22:25:26.501Z,88.90
2017-12-16T22:27:54.788Z,88.90
2017-12-16T22:30:23.104Z,89.10
2017-12-16T22:32:51.384Z,89.10
2017-12-16T22:35:19.685Z,89.30
2017-12-16T22:37:47.978Z,89.40
2017-12-16T22:40:16.288Z,89.50
2017-12-16T22:42:44.573Z,89.50
2017-12-16T22:45:12.883Z,89.60
2017-12-16T22:47:41.168Z,89.60
2017-12-16T22:50:09.489Z,89.60
2017-12-16T22:52:37.777Z,89.50
2017-12-16T22:55:06.061Z,89.50
2017-12-16T22:57:34.372Z,89.40
2017-12-16T23:00:02.660Z,89.40
2017-12-16T23:02:30.963Z,89.30
2017-12-16T23:04:58.481Z,89.30
2017-12-16T23:07:26.795Z,89.30
2017-12-16T23:09:55.090Z,89.30
2017-12-16T23:12:23.396Z,89.30
2017-12-16T23:14:51.698Z,89.20
2017-12-16T23:17:20.041Z,89.30
2017-12-16T23:19:48.336Z,89.30
2017-12-16T23:22:16.648Z,89.30
2017-12-16T23:24:44.945Z,89.40
2017-12-16T23:27:13.265Z,89.40
2017-12-16T23:29:41.581Z,89.50
2017-12-16T23:32:09.896Z,89.50
2017-12-16T23:34:38.188Z,89.50
2017-12-16T23:37:06.496Z,89.60
2017-12-16T23:39:34.781Z,89.70
2017-12-16T23:42:03.083Z,89.80
2017-12-16T23:44:31.369Z,89.80
2017-12-16T23:46:59.675Z,89.90
2017-12-16T23:49:27.963Z,89.60
2017-12-16T23:51:56.273Z,89.70
2017-12-16T23:54:23.795Z,89.70
2017-12-16T23:56:52.099Z,89.50
2017-12-16T23:59:20.385Z,89.40
